createdAt,value
2019-04-28T00:00:04.492Z,96719.60
2019-04-28T00:01:16.310Z,96720.81
2019-04-28T00:02:24.676Z,96721.34
2019-04-28T00:03:32.034Z,96715.91
2019-04-28T00:04:39.249Z,96723.70
2019-04-28T00:05:46.457Z,96717.43
2019-04-28T00:06:53.708Z,96713.11
2019-04-28T00:08:01.257Z,96719.17
2019-04-28T00:09:11.446Z,96714.51
2019-04-28T00:10:20.929Z,96711.94
2019-04-28T00:11:28.288Z,96713.30
2019-04-28T00:12:38.066Z,96701.79
2019-04-28T00:13:45.363Z,96702.78
2019-04-28T00:14:52.558Z,96701.20
2019-04-28T00:16:01.477Z,96699.16
2019-04-28T00:17:08.659Z,96692.72
2019-04-28T00:18:15.901Z,96698.89
2019-04-28T00:19:24.838Z,96704.12
2019-04-28T00:20:42.165Z,96697.77
2019-04-28T00:21:54.860Z,96704.73
2019-04-28T00:23:12.073Z,96698.91
2019-04-28T00:24:44.702Z,96696.50
2019-04-28T00:26:11.148Z,96706.80
2019-04-28T00:27:19.255Z,96698.21
2019-04-28T00:28:26.544Z,96701.20
2019-04-28T00:29:40.377Z,96694.02
2019-04-28T00:30:42.873Z,96697.42
2019-04-28T00:31:51.260Z,96697.05
2019-04-28T00:32:58.654Z,96700.91
2019-04-28T00:34:06.525Z,96694.47
2019-04-28T00:35:13.855Z,96696.97
2019-04-28T00:36:21.623Z,96694.84
2019-04-28T00:37:32.104Z,96695.68
2019-04-28T00:38:41.286Z,96694.02
2019-04-28T00:39:48.264Z,96692.28
2019-04-28T00:40:55.505Z,96693.56
2019-04-28T00:42:03.405Z,96692.66
2019-04-28T00:43:10.902Z,96695.68
2019-04-28T00:44:19.042Z,96701.66
2019-04-28T00:45:26.361Z,96704.69
2019-04-28T00:46:35.406Z,96701.81
2019-04-28T00:47:42.898Z,96701.44
2019-04-28T00:48:51.354Z,96703.64
2019-04-28T00:49:58.606Z,96701.14
2019-04-28T00:51:05.891Z,96707.20
2019-04-28T00:52:13.387Z,96697.81
2019-04-28T00:53:22.947Z,96703.87
2019-04-28T00:54:31.744Z,96707.38
2019-04-28T00:55:39.101Z,96703.03
2019-04-28T00:56:46.309Z,96701.86
2019-04-28T00:57:53.509Z,96707.84
2019-04-28T00:59:01.683Z,96706.09
2019-04-28T01:00:11.598Z,96706.55
2019-04-28T01:01:25.399Z,96710.03
2019-04-28T01:02:43.007Z,96716.55
2019-04-28T01:03:51.984Z,96715.03
2019-04-28T01:05:01.275Z,96719.12
2019-04-28T01:06:08.284Z,96718.92
2019-04-28T01:07:15.479Z,96715.98
2019-04-28T01:08:22.690Z,96726.27
2019-04-28T01:09:31.557Z,96715.98
2019-04-28T01:10:40.883Z,96722.03
2019-04-28T01:11:47.833Z,96720.82
2019-04-28T01:12:55.227Z,96717.11
2019-04-28T01:14:02.434Z,96719.30
2019-04-28T01:15:13.290Z,96718.92
2019-04-28T01:16:30.240Z,96712.50
2019-04-28T01:18:02.308Z,96715.52
2019-04-28T01:19:14.409Z,96714.34
2019-04-28T01:20:22.113Z,96715.17
2019-04-28T01:21:49.861Z,96714.87
2019-04-28T01:22:57.149Z,96716.53
2019-04-28T01:24:04.344Z,96713.95
2019-04-28T01:25:12.245Z,96719.33
2019-04-28T01:26:19.998Z,96721.30
2019-04-28T01:27:50.541Z,96724.18
2019-04-28T01:28:59.612Z,96719.23
2019-04-28T01:30:13.312Z,96725.66
2019-04-28T01:31:31.147Z,96732.78
2019-04-28T01:32:44.387Z,96731.87
2019-04-28T01:34:10.520Z,96734.81
2019-04-28T01:35:20.821Z,96732.63
2019-04-28T01:36:26.633Z,96729.98
2019-04-28T01:37:33.874Z,96732.82
2019-04-28T01:38:41.083Z,96731.91
2019-04-28T01:39:49.625Z,96734.34
2019-04-28T01:40:57.024Z,96728.28
2019-04-28T01:42:04.246Z,96734.18
2019-04-28T01:43:11.471Z,96738.80
2019-04-28T01:44:19.808Z,96734.86
2019-04-28T01:45:29.994Z,96733.13
2019-04-28T01:46:37.065Z,96735.21
2019-04-28T01:47:44.281Z,96735.69
2019-04-28T01:48:51.487Z,96735.97
2019-04-28T01:50:00.229Z,96742.25
2019-04-28T01:51:09.440Z,96741.64
2019-04-28T01:52:16.523Z,96742.02
2019-04-28T01:53:23.719Z,96740.20
2019-04-28T01:54:31.172Z,96739.63
2019-04-28T01:55:39.335Z,96750.77
2019-04-28T01:56:47.616Z,96739.55
2019-04-28T01:57:54.814Z,96737.81
2019-04-28T01:59:03.507Z,96737.81
2019-04-28T02:00:22.878Z,96738.19
2019-04-28T02:01:23.001Z,96741.59
2019-04-28T02:02:30.285Z,96744.25
2019-04-28T02:03:37.511Z,96738.19
2019-04-28T02:04:44.721Z,96740.31
2019-04-28T02:05:51.978Z,96737.28
2019-04-28T02:06:59.880Z,96732.59
2019-04-28T02:08:07.255Z,96734.70
2019-04-28T02:09:14.453Z,96731.75
2019-04-28T02:10:21.926Z,96736.38
2019-04-28T02:11:29.545Z,96739.70
2019-04-28T02:12:36.892Z,96736.67
2019-04-28T02:13:44.104Z,96736.97
2019-04-28T02:14:52.147Z,96729.25
2019-04-28T02:16:00.135Z,96738.64
2019-04-28T02:17:07.431Z,96735.23
2019-04-28T02:18:14.656Z,96736.22
2019-04-28T02:19:21.883Z,96740.91
2019-04-28T02:20:30.138Z,96732.43
2019-04-28T02:22:01.960Z,96734.17
2019-04-28T02:23:17.630Z,96737.20
2019-04-28T02:24:37.401Z,96734.59
2019-04-28T02:25:44.611Z,96734.67
2019-04-28T02:26:52.696Z,96739.97
2019-04-28T02:27:59.996Z,96734.45
2019-04-28T02:29:07.230Z,96740.35
2019-04-28T02:30:14.862Z,96735.12
2019-04-28T02:31:24.438Z,96732.09
2019-04-28T02:32:31.270Z,96741.03
2019-04-28T02:33:40.792Z,96740.02
2019-04-28T02:34:47.502Z,96740.77
2019-04-28T02:35:54.945Z,96739.41
2019-04-28T02:37:02.753Z,96748.71
2019-04-28T02:38:11.499Z,96740.98
2019-04-28T02:39:20.681Z,96743.94
2019-04-28T02:40:30.348Z,96750.75
2019-04-28T02:41:36.709Z,96742.58
2019-04-28T02:42:45.144Z,96744.70
2019-04-28T02:43:52.340Z,96744.13
2019-04-28T02:45:00.428Z,96749.66
2019-04-28T02:46:10.560Z,96753.90
2019-04-28T02:47:18.072Z,96751.25
2019-04-28T02:48:27.128Z,96751.70
2019-04-28T02:49:56.243Z,96752.91
2019-04-28T02:51:22.427Z,96751.17
2019-04-28T02:53:06.905Z,96752.98
2019-04-28T02:54:14.103Z,96750.68
2019-04-28T02:55:22.401Z,96757.13
2019-04-28T02:56:30.822Z,96756.74
2019-04-28T02:57:40.604Z,96754.02
2019-04-28T02:58:50.835Z,96754.39
2019-04-28T02:59:56.995Z,96747.42
2019-04-28T03:01:15.280Z,96755.98
2019-04-28T03:02:13.816Z,96749.84
2019-04-28T03:03:21.331Z,96749.28
2019-04-28T03:04:30.835Z,96744.05
2019-04-28T03:05:41.026Z,96755.11
2019-04-28T03:06:47.566Z,96756.32
2019-04-28T03:07:54.763Z,96752.45
2019-04-28T03:09:01.992Z,96754.95
2019-04-28T03:10:11.310Z,96752.38
2019-04-28T03:11:20.337Z,96751.55
2019-04-28T03:12:28.032Z,96755.78
2019-04-28T03:13:35.255Z,96754.87
2019-04-28T03:14:44.017Z,96749.72
2019-04-28T03:15:52.014Z,96755.33
2019-04-28T03:17:00.911Z,96751.02
2019-04-28T03:18:09.111Z,96756.54
2019-04-28T03:19:17.235Z,96752.30
2019-04-28T03:20:24.445Z,96754.95
2019-04-28T03:21:31.664Z,96751.17
2019-04-28T03:22:40.718Z,96749.13
2019-04-28T03:23:47.861Z,96747.08
2019-04-28T03:24:56.708Z,96740.72
2019-04-28T03:26:25.866Z,96739.09
2019-04-28T03:27:52.013Z,96744.31
2019-04-28T03:29:24.221Z,96735.47
2019-04-28T03:30:53.328Z,96741.59
2019-04-28T03:32:27.972Z,96747.81
2019-04-28T03:33:18.464Z,96748.60
2019-04-28T03:34:23.599Z,96751.25
2019-04-28T03:35:32.479Z,96751.33
2019-04-28T03:36:40.894Z,96756.02
2019-04-28T03:37:51.166Z,96750.42
2019-04-28T03:38:57.187Z,96758.52
2019-04-28T03:40:05.269Z,96751.63
2019-04-28T03:41:12.463Z,96759.28
2019-04-28T03:42:21.555Z,96757.84
2019-04-28T03:43:30.593Z,96755.53
2019-04-28T03:44:37.968Z,96753.34
2019-04-28T03:45:51.344Z,96755.84
2019-04-28T03:47:02.750Z,96755.30
2019-04-28T03:48:07.475Z,96755.76
2019-04-28T03:49:31.980Z,96752.73
2019-04-28T03:50:41.347Z,96749.70
2019-04-28T03:51:50.561Z,96756.97
2019-04-28T03:52:57.066Z,96759.47
2019-04-28T03:54:04.296Z,96755.98
2019-04-28T03:55:11.926Z,96749.92
2019-04-28T03:56:22.710Z,96748.56
2019-04-28T03:57:31.401Z,96754.43
2019-04-28T03:58:40.577Z,96753.14
2019-04-28T03:59:51.115Z,96751.33
2019-04-28T04:01:02.678Z,96752.61
2019-04-28T04:02:07.147Z,96749.66
2019-04-28T04:03:14.384Z,96749.58
2019-04-28T04:04:21.594Z,96750.87
2019-04-28T04:05:30.680Z,96748.22
2019-04-28T04:06:37.753Z,96752.45
2019-04-28T04:07:44.936Z,96748.59
2019-04-28T04:08:52.137Z,96742.53
2019-04-28T04:10:11.172Z,96745.03
2019-04-28T04:11:35.342Z,96750.02
2019-04-28T04:12:54.647Z,96745.86
2019-04-28T04:14:11.444Z,96747.84
2019-04-28T04:15:54.243Z,96749.28
2019-04-28T04:17:21.614Z,96751.13
2019-04-28T04:18:34.479Z,96759.02
2019-04-28T04:19:41.692Z,96766.89
2019-04-28T04:20:51.211Z,96770.75
2019-04-28T04:22:00.203Z,96766.58
2019-04-28T04:23:06.788Z,96771.47
2019-04-28T04:24:14.007Z,96769.12
2019-04-28T04:25:21.210Z,96773.47
2019-04-28T04:26:32.874Z,96771.11
2019-04-28T04:27:37.313Z,96765.80
2019-04-28T04:28:44.509Z,96766.11
2019-04-28T04:29:51.719Z,96772.28
2019-04-28T04:31:02.968Z,96761.44
2019-04-28T04:32:15.789Z,96766.05
2019-04-28T04:33:20.487Z,96765.98
2019-04-28T04:34:26.734Z,96762.41
2019-04-28T04:35:33.957Z,96768.84
2019-04-28T04:36:41.951Z,96759.83
2019-04-28T04:37:50.353Z,96764.61
2019-04-28T04:38:57.646Z,96762.03
2019-04-28T04:40:05.383Z,96768.09
2019-04-28T04:41:12.638Z,96763.86
2019-04-28T04:42:20.534Z,96766.43
2019-04-28T04:43:27.795Z,96764.16
2019-04-28T04:44:38.059Z,96770.06
2019-04-28T04:45:43.896Z,96766.08
2019-04-28T04:46:51.197Z,96766.91
2019-04-28T04:48:00.592Z,96769.87
2019-04-28T04:49:07.345Z,96768.58
2019-04-28T04:50:14.572Z,96772.45
2019-04-28T04:51:21.971Z,96771.16
2019-04-28T04:52:30.373Z,96769.79
2019-04-28T04:53:37.782Z,96775.70
2019-04-28T04:54:44.974Z,96767.96
2019-04-28T04:55:52.717Z,96773.87
2019-04-28T04:57:00.179Z,96770.38
2019-04-28T04:58:07.492Z,96769.09
2019-04-28T04:59:14.717Z,96770.76
2019-04-28T05:00:30.703Z,96769.84
2019-04-28T05:01:50.788Z,96767.64
2019-04-28T05:03:04.255Z,96771.59
2019-04-28T05:04:26.621Z,96777.20
2019-04-28T05:05:40.452Z,96777.58
2019-04-28T05:06:49.602Z,96775.00
2019-04-28T05:07:56.627Z,96776.66
2019-04-28T05:09:06.550Z,96771.40
2019-04-28T05:10:13.943Z,96771.69
2019-04-28T05:11:21.134Z,96777.59
2019-04-28T05:12:28.361Z,96775.02
2019-04-28T05:13:35.556Z,96774.19
2019-04-28T05:14:43.760Z,96768.20
2019-04-28T05:15:52.530Z,96779.34
2019-04-28T05:17:00.818Z,96776.31
2019-04-28T05:18:10.022Z,96776.39
2019-04-28T05:19:17.116Z,96781.17
2019-04-28T05:20:24.345Z,96773.52
2019-04-28T05:21:33.453Z,96773.97
2019-04-28T05:22:47.240Z,96783.11
2019-04-28T05:24:30.237Z,96784.02
2019-04-28T05:25:40.866Z,96777.28
2019-04-28T05:26:49.587Z,96776.13
2019-04-28T05:27:59.311Z,96786.88
2019-04-28T05:29:05.934Z,96778.33
2019-04-28T05:30:14.040Z,96777.57
2019-04-28T05:31:24.319Z,96776.28
2019-04-28T05:32:42.635Z,96778.41
2019-04-28T05:33:39.925Z,96784.31
2019-04-28T05:34:52.654Z,96779.88
2019-04-28T05:36:01.077Z,96785.86
2019-04-28T05:37:06.702Z,96785.78
2019-04-28T05:38:13.961Z,96781.92
2019-04-28T05:39:21.244Z,96784.50
2019-04-28T05:40:29.562Z,96792.14
2019-04-28T05:41:36.972Z,96789.48
2019-04-28T05:43:00.679Z,96789.48
2019-04-28T05:44:07.657Z,96796.69
2019-04-28T05:45:14.884Z,96795.09
2019-04-28T05:46:22.109Z,96793.81
2019-04-28T05:47:30.617Z,96798.59
2019-04-28T05:48:44.018Z,96799.80
2019-04-28T05:50:04.194Z,96795.93
2019-04-28T05:51:13.878Z,96803.66
2019-04-28T05:52:40.305Z,96794.80
2019-04-28T05:54:00.744Z,96799.95
2019-04-28T05:55:18.319Z,96804.62
2019-04-28T05:56:50.280Z,96806.06
2019-04-28T05:58:22.366Z,96801.45
2019-04-28T05:59:46.081Z,96810.62
2019-04-28T06:01:12.404Z,96809.06
2019-04-28T06:02:23.989Z,96804.06
2019-04-28T06:03:31.795Z,96804.59
2019-04-28T06:04:40.531Z,96805.35
2019-04-28T06:05:49.630Z,96800.05
2019-04-28T06:07:02.775Z,96800.80
2019-04-28T06:08:20.244Z,96795.54
2019-04-28T06:09:32.755Z,96793.80
2019-04-28T06:10:40.054Z,96800.98
2019-04-28T06:11:49.582Z,96798.80
2019-04-28T06:12:56.835Z,96798.64
2019-04-28T06:14:04.044Z,96796.36
2019-04-28T06:15:11.954Z,96803.36
2019-04-28T06:16:19.611Z,96795.55
2019-04-28T06:17:29.506Z,96793.66
2019-04-28T06:18:36.928Z,96796.53
2019-04-28T06:19:44.120Z,96795.16
2019-04-28T06:20:51.332Z,96797.92
2019-04-28T06:21:58.545Z,96794.73
2019-04-28T06:23:05.844Z,96795.11
2019-04-28T06:24:13.069Z,96799.34
2019-04-28T06:25:20.283Z,96799.72
2019-04-28T06:26:27.642Z,96800.51
2019-04-28T06:27:34.883Z,96800.31
2019-04-28T06:28:42.080Z,96807.51
2019-04-28T06:29:49.306Z,96810.76
2019-04-28T06:30:56.531Z,96809.77
2019-04-28T06:32:03.793Z,96807.11
2019-04-28T06:33:11.000Z,96805.45
2019-04-28T06:34:18.187Z,96810.52
2019-04-28T06:35:26.487Z,96813.44
2019-04-28T06:36:34.737Z,96809.23
2019-04-28T06:37:41.944Z,96807.11
2019-04-28T06:38:49.143Z,96806.65
2019-04-28T06:39:56.351Z,96803.50
2019-04-28T06:41:03.642Z,96805.55
2019-04-28T06:42:10.851Z,96809.33
2019-04-28T06:43:18.065Z,96805.38
2019-04-28T06:44:25.415Z,96803.55
2019-04-28T06:45:32.650Z,96807.26
2019-04-28T06:46:39.875Z,96806.69
2019-04-28T06:47:48.037Z,96810.02
2019-04-28T06:48:55.274Z,96810.77
2019-04-28T06:50:02.482Z,96808.11
2019-04-28T06:51:09.741Z,96817.05
2019-04-28T06:52:16.950Z,96809.69
2019-04-28T06:53:24.175Z,96811.36
2019-04-28T06:54:31.588Z,96803.16
2019-04-28T06:55:38.867Z,96803.99
2019-04-28T06:56:46.051Z,96806.58
2019-04-28T06:57:54.324Z,96808.86
2019-04-28T06:59:01.569Z,96800.83
2019-04-28T07:00:09.871Z,96806.07
2019-04-28T07:01:17.117Z,96798.88
2019-04-28T07:02:24.309Z,96807.89
2019-04-28T07:03:31.521Z,96804.41
2019-04-28T07:04:38.744Z,96798.33
2019-04-28T07:05:45.959Z,96806.07
2019-04-28T07:06:53.182Z,96809.86
2019-04-28T07:08:00.377Z,96812.44
2019-04-28T07:09:11.049Z,96811.52
2019-04-28T07:10:18.294Z,96811.44
2019-04-28T07:11:25.599Z,96814.39
2019-04-28T07:12:32.848Z,96811.27
2019-04-28T07:13:40.032Z,96810.33
2019-04-28T07:14:47.292Z,96821.77
2019-04-28T07:15:54.544Z,96821.31
2019-04-28T07:17:01.802Z,96812.28
2019-04-28T07:18:09.071Z,96820.40
2019-04-28T07:19:16.283Z,96818.27
2019-04-28T07:20:38.961Z,96829.80
2019-04-28T07:22:01.760Z,96832.30
2019-04-28T07:23:09.486Z,96832.84
2019-04-28T07:24:16.706Z,96831.71
2019-04-28T07:25:23.889Z,96844.44
2019-04-28T07:26:31.100Z,96828.05
2019-04-28T07:27:38.340Z,96833.13
2019-04-28T07:28:45.657Z,96834.71
2019-04-28T07:29:52.881Z,96840.70
2019-04-28T07:31:00.091Z,96836.00
2019-04-28T07:32:07.321Z,96831.22
2019-04-28T07:33:14.562Z,96830.76
2019-04-28T07:34:21.787Z,96838.04
2019-04-28T07:35:29.490Z,96831.02
2019-04-28T07:36:37.184Z,96836.47
2019-04-28T07:37:44.922Z,96835.10
2019-04-28T07:38:52.174Z,96830.23
2019-04-28T07:39:59.401Z,96835.69
2019-04-28T07:41:06.655Z,96826.57
2019-04-28T07:42:13.866Z,96829.49
2019-04-28T07:43:21.091Z,96831.16
2019-04-28T07:44:28.318Z,96826.45
2019-04-28T07:45:35.723Z,96826.38
2019-04-28T07:46:44.373Z,96828.87
2019-04-28T07:47:51.737Z,96834.86
2019-04-28T07:48:58.948Z,96831.83
2019-04-28T07:50:08.009Z,96839.48
2019-04-28T07:51:15.230Z,96843.27
2019-04-28T07:52:45.787Z,96835.90
2019-04-28T07:53:56.810Z,96835.90
2019-04-28T07:55:04.768Z,96847.68
2019-04-28T07:56:13.288Z,96852.47
2019-04-28T07:57:24.008Z,96848.97
2019-04-28T07:58:30.437Z,96848.89
2019-04-28T07:59:37.647Z,96849.72
2019-04-28T08:00:44.859Z,96850.84
2019-04-28T08:01:52.100Z,96851.56
2019-04-28T08:02:59.376Z,96853.59
2019-04-28T08:04:06.704Z,96850.47
2019-04-28T08:05:14.093Z,96851.22
2019-04-28T08:06:21.305Z,96847.73
2019-04-28T08:07:28.549Z,96841.56
2019-04-28T08:08:35.756Z,96846.19
2019-04-28T08:09:42.953Z,96847.27
2019-04-28T08:10:50.149Z,96845.44
2019-04-28T08:11:57.359Z,96849.06
2019-04-28T08:13:05.230Z,96854.85
2019-04-28T08:14:12.654Z,96849.14
2019-04-28T08:15:19.881Z,96846.48
2019-04-28T08:16:27.179Z,96853.22
2019-04-28T08:17:34.525Z,96847.88
2019-04-28T08:18:41.796Z,96843.47
2019-04-28T08:19:49.020Z,96844.09
2019-04-28T08:20:56.458Z,96848.71
2019-04-28T08:22:03.879Z,96850.38
2019-04-28T08:23:11.091Z,96846.42
2019-04-28T08:24:18.326Z,96856.58
2019-04-28T08:25:25.739Z,96850.49
2019-04-28T08:26:33.054Z,96850.75
2019-04-28T08:27:40.311Z,96852.70
2019-04-28T08:28:47.520Z,96852.52
2019-04-28T08:29:58.580Z,96848.50
2019-04-28T08:31:05.244Z,96856.42
2019-04-28T08:32:25.614Z,96850.25
2019-04-28T08:33:36.827Z,96849.78
2019-04-28T08:34:44.054Z,96854.41
2019-04-28T08:35:51.406Z,96846.56
2019-04-28T08:37:00.051Z,96848.05
2019-04-28T08:38:07.247Z,96851.27
2019-04-28T08:39:15.319Z,96850.25
2019-04-28T08:40:22.870Z,96845.83
2019-04-28T08:41:30.115Z,96849.06
2019-04-28T08:42:37.341Z,96842.48
2019-04-28T08:43:44.953Z,96843.14
2019-04-28T08:44:52.345Z,96845.54
2019-04-28T08:45:59.620Z,96844.63
2019-04-28T08:47:06.872Z,96844.81
2019-04-28T08:48:15.348Z,96844.60
2019-04-28T08:49:22.680Z,96836.66
2019-04-28T08:50:29.916Z,96836.39
2019-04-28T08:51:37.427Z,96837.84
2019-04-28T08:52:44.638Z,96831.56
2019-04-28T08:53:51.864Z,96841.17
2019-04-28T08:54:59.137Z,96839.20
2019-04-28T08:56:06.376Z,96841.05
2019-04-28T08:57:13.634Z,96842.62
2019-04-28T08:58:20.860Z,96843.83
2019-04-28T08:59:28.088Z,96838.56
2019-04-28T09:00:35.357Z,96841.98
2019-04-28T09:01:42.583Z,96844.91
2019-04-28T09:02:49.941Z,96838.09
2019-04-28T09:03:57.290Z,96843.61
2019-04-28T09:05:04.780Z,96837.97
2019-04-28T09:06:13.107Z,96838.16
2019-04-28T09:07:20.366Z,96836.77
2019-04-28T09:08:27.604Z,96841.76
2019-04-28T09:09:34.832Z,96842.12
2019-04-28T09:10:42.059Z,96838.40
2019-04-28T09:11:49.282Z,96843.39
2019-04-28T09:12:56.582Z,96838.12
2019-04-28T09:14:03.795Z,96839.32
2019-04-28T09:15:11.861Z,96838.86
2019-04-28T09:16:19.060Z,96837.37
2019-04-28T09:17:26.283Z,96845.37
2019-04-28T09:18:33.510Z,96849.07
2019-04-28T09:19:42.422Z,96851.20
2019-04-28T09:20:49.837Z,96850.27
2019-04-28T09:21:57.081Z,96851.56
2019-04-28T09:23:05.506Z,96849.81
2019-04-28T09:24:12.761Z,96853.59
2019-04-28T09:25:21.060Z,96853.50
2019-04-28T09:26:38.515Z,96850.82
2019-04-28T09:27:45.733Z,96848.11
2019-04-28T09:28:52.960Z,96843.67
2019-04-28T09:30:01.812Z,96841.62
2019-04-28T09:31:11.066Z,96844.79
2019-04-28T09:32:19.522Z,96844.56
2019-04-28T09:33:26.768Z,96842.52
2019-04-28T09:34:34.101Z,96840.58
2019-04-28T09:35:41.324Z,96852.38
2019-04-28T09:36:48.547Z,96849.22
2019-04-28T09:37:55.777Z,96847.00
2019-04-28T09:39:03.875Z,96841.36
2019-04-28T09:40:16.304Z,96846.53
2019-04-28T09:41:23.621Z,96848.75
2019-04-28T09:43:07.857Z,96847.45
2019-04-28T09:44:17.309Z,96841.36
2019-04-28T09:45:27.350Z,96846.36
2019-04-28T09:46:37.263Z,96843.30
2019-04-28T09:47:44.486Z,96850.52
2019-04-28T09:48:51.653Z,96841.08
2019-04-28T09:49:58.941Z,96841.55
2019-04-28T09:51:06.180Z,96841.08
2019-04-28T09:52:13.392Z,96838.95
2019-04-28T09:53:20.602Z,96838.03
2019-04-28T09:54:27.799Z,96839.69
2019-04-28T09:55:35.040Z,96840.42
2019-04-28T09:56:42.343Z,96833.95
2019-04-28T09:57:49.571Z,96839.41
2019-04-28T09:58:56.794Z,96840.14
2019-04-28T10:00:05.325Z,96841.30
2019-04-28T10:01:12.747Z,96838.52
2019-04-28T10:02:20.050Z,96839.72
2019-04-28T10:03:27.261Z,96840.45
2019-04-28T10:04:41.354Z,96838.69
2019-04-28T10:05:43.438Z,96835.08
2019-04-28T10:06:50.679Z,96846.03
2019-04-28T10:07:57.934Z,96839.00
2019-04-28T10:09:08.602Z,96840.56
2019-04-28T10:10:17.894Z,96838.70
2019-04-28T10:11:30.762Z,96837.31
2019-04-28T10:12:35.240Z,96835.09
2019-04-28T10:13:42.466Z,96841.92
2019-04-28T10:14:49.662Z,96835.82
2019-04-28T10:15:56.981Z,96835.22
2019-04-28T10:17:04.264Z,96839.84
2019-04-28T10:18:11.488Z,96847.61
2019-04-28T10:19:18.701Z,96843.36
2019-04-28T10:20:25.929Z,96841.70
2019-04-28T10:21:33.214Z,96839.94
2019-04-28T10:22:40.411Z,96840.67
2019-04-28T10:23:47.606Z,96843.53
2019-04-28T10:24:54.877Z,96838.25
2019-04-28T10:26:02.150Z,96844.99
2019-04-28T10:27:09.671Z,96842.30
2019-04-28T10:28:16.937Z,96843.23
2019-04-28T10:29:24.247Z,96843.23
2019-04-28T10:30:31.678Z,96839.34
2019-04-28T10:31:38.912Z,96841.47
2019-04-28T10:32:46.182Z,96844.06
2019-04-28T10:33:57.533Z,96836.63
2019-04-28T10:35:05.037Z,96832.73
2019-04-28T10:36:12.618Z,96834.39
2019-04-28T10:37:19.830Z,96834.30
2019-04-28T10:38:27.114Z,96836.79
2019-04-28T10:39:40.672Z,96833.63
2019-04-28T10:41:16.029Z,96827.88
2019-04-28T10:42:23.403Z,96831.94
2019-04-28T10:43:30.703Z,96830.28
2019-04-28T10:44:41.216Z,96829.94
2019-04-28T10:45:49.537Z,96826.58
2019-04-28T10:46:56.843Z,96825.91
2019-04-28T10:48:04.140Z,96818.89
2019-04-28T10:49:11.682Z,96828.36
2019-04-28T10:50:19.407Z,96824.89
2019-04-28T10:51:26.632Z,96821.55
2019-04-28T10:52:33.856Z,96832.88
2019-04-28T10:53:41.101Z,96822.56
2019-04-28T10:54:48.389Z,96827.30
2019-04-28T10:55:55.581Z,96825.59
2019-04-28T10:57:02.852Z,96823.02
2019-04-28T10:58:10.143Z,96822.59
2019-04-28T10:59:17.943Z,96826.39
2019-04-28T11:00:28.491Z,96827.27
2019-04-28T11:01:35.851Z,96825.05
2019-04-28T11:02:43.637Z,96823.33
2019-04-28T11:03:52.513Z,96816.84
2019-04-28T11:05:13.583Z,96820.78
2019-04-28T11:06:20.973Z,96817.97
2019-04-28T11:07:28.266Z,96820.92
2019-04-28T11:08:45.356Z,96819.95
2019-04-28T11:10:04.591Z,96820.93
2019-04-28T11:11:15.322Z,96825.08
2019-04-28T11:12:25.598Z,96819.16
2019-04-28T11:13:32.927Z,96814.33
2019-04-28T11:14:41.785Z,96817.90
2019-04-28T11:15:49.102Z,96818.95
2019-04-28T11:16:56.721Z,96819.09
2019-04-28T11:18:06.536Z,96814.87
2019-04-28T11:19:14.111Z,96815.81
2019-04-28T11:20:21.637Z,96815.52
2019-04-28T11:21:28.901Z,96813.88
2019-04-28T11:22:36.138Z,96813.63
2019-04-28T11:23:43.363Z,96814.23
2019-04-28T11:24:50.744Z,96811.42
2019-04-28T11:25:57.950Z,96813.80
2019-04-28T11:27:06.168Z,96815.31
2019-04-28T11:28:13.412Z,96804.70
2019-04-28T11:29:20.679Z,96804.47
2019-04-28T11:30:29.688Z,96808.03
2019-04-28T11:31:36.993Z,96804.23
2019-04-28T11:32:51.704Z,96801.77
2019-04-28T11:34:16.826Z,96800.61
2019-04-28T11:35:31.254Z,96804.49
2019-04-28T11:36:38.502Z,96804.73
2019-04-28T11:37:45.736Z,96804.28
2019-04-28T11:38:52.962Z,96802.85
2019-04-28T11:40:00.175Z,96804.85
2019-04-28T11:41:07.509Z,96801.44
2019-04-28T11:42:14.779Z,96791.37
2019-04-28T11:43:22.022Z,96801.42
2019-04-28T11:44:29.247Z,96798.36
2019-04-28T11:45:36.484Z,96792.22
2019-04-28T11:46:43.757Z,96794.20
2019-04-28T11:47:51.013Z,96791.48
2019-04-28T11:48:58.224Z,96784.36
2019-04-28T11:50:05.613Z,96789.45
2019-04-28T11:51:12.857Z,96791.91
2019-04-28T11:52:20.149Z,96784.80
2019-04-28T11:53:27.353Z,96785.11
2019-04-28T11:54:34.568Z,96789.37
2019-04-28T11:55:41.777Z,96785.54
2019-04-28T11:56:49.079Z,96784.83
2019-04-28T11:57:56.363Z,96784.23
2019-04-28T11:59:03.610Z,96780.20
2019-04-28T12:00:21.275Z,96783.36
2019-04-28T12:01:28.618Z,96787.50
2019-04-28T12:02:35.880Z,96779.21
2019-04-28T12:03:44.992Z,96781.70
2019-04-28T12:04:53.342Z,96778.73
2019-04-28T12:06:00.571Z,96782.89
2019-04-28T12:07:08.171Z,96776.65
2019-04-28T12:08:15.425Z,96782.22
2019-04-28T12:09:36.679Z,96776.30
2019-04-28T12:11:08.570Z,96782.94
2019-04-28T12:12:34.549Z,96785.78
2019-04-28T12:13:58.893Z,96785.59
2019-04-28T12:15:23.301Z,96789.65
2019-04-28T12:16:49.726Z,96793.80
2019-04-28T12:18:13.397Z,96788.50
2019-04-28T12:19:36.192Z,96788.30
2019-04-28T12:20:43.449Z,96781.91
2019-04-28T12:21:50.676Z,96785.25
2019-04-28T12:22:57.916Z,96783.00
2019-04-28T12:24:05.277Z,96779.77
2019-04-28T12:25:12.818Z,96776.11
2019-04-28T12:26:20.060Z,96775.98
2019-04-28T12:27:27.605Z,96770.43
2019-04-28T12:28:34.918Z,96775.28
2019-04-28T12:29:42.295Z,96775.19
2019-04-28T12:30:49.863Z,96776.61
2019-04-28T12:32:03.558Z,96774.72
2019-04-28T12:33:10.855Z,96768.91
2019-04-28T12:34:19.004Z,96779.20
2019-04-28T12:35:26.269Z,96776.00
2019-04-28T12:36:33.525Z,96780.97
2019-04-28T12:37:40.988Z,96775.64
2019-04-28T12:38:48.696Z,96772.47
2019-04-28T12:39:55.923Z,96777.91
2019-04-28T12:41:03.223Z,96772.94
2019-04-28T12:42:10.520Z,96779.44
2019-04-28T12:43:17.825Z,96774.00
2019-04-28T12:44:25.088Z,96775.77
2019-04-28T12:45:35.245Z,96773.76
2019-04-28T12:46:41.187Z,96776.36
2019-04-28T12:47:48.427Z,96777.19
2019-04-28T12:48:58.749Z,96773.76
2019-04-28T12:50:14.085Z,96774.94
2019-04-28T12:51:21.404Z,96776.23
2019-04-28T12:52:28.626Z,96772.81
2019-04-28T12:53:35.867Z,96774.94
2019-04-28T12:54:44.676Z,96772.70
2019-04-28T12:55:52.044Z,96774.00
2019-04-28T12:56:59.332Z,96772.70
2019-04-28T12:58:06.530Z,96773.41
2019-04-28T12:59:19.904Z,96775.42
2019-04-28T13:00:45.992Z,96770.46
2019-04-28T13:02:15.586Z,96775.55
2019-04-28T13:03:37.616Z,96774.25
2019-04-28T13:04:48.473Z,96774.36
2019-04-28T13:06:02.555Z,96774.95
2019-04-28T13:07:06.280Z,96771.88
2019-04-28T13:08:13.553Z,96770.81
2019-04-28T13:09:20.798Z,96766.44
2019-04-28T13:10:28.098Z,96772.69
2019-04-28T13:11:35.369Z,96770.80
2019-04-28T13:12:42.595Z,96770.67
2019-04-28T13:13:49.852Z,96773.98
2019-04-28T13:14:57.154Z,96774.34
2019-04-28T13:16:04.560Z,96765.12
2019-04-28T13:17:11.784Z,96766.78
2019-04-28T13:18:19.027Z,96771.04
2019-04-28T13:19:26.237Z,96764.39
2019-04-28T13:20:33.450Z,96761.67
2019-04-28T13:21:40.688Z,96758.23
2019-04-28T13:22:47.993Z,96754.81
2019-04-28T13:23:55.217Z,96755.78
2019-04-28T13:25:03.508Z,96752.83
2019-04-28T13:26:10.726Z,96755.43
2019-04-28T13:27:18.066Z,96749.40
2019-04-28T13:28:25.400Z,96752.47
2019-04-28T13:29:32.666Z,96757.56
2019-04-28T13:30:39.903Z,96757.41
2019-04-28T13:31:47.164Z,96758.71
2019-04-28T13:32:54.425Z,96758.59
2019-04-28T13:34:02.245Z,96760.16
2019-04-28T13:35:10.028Z,96757.80
2019-04-28T13:36:17.346Z,96758.98